sensor_id;sensor_type;location;lat;lon;timestamp;temperature;humidity
14733;DHT22;7457;50.960;6.830;2023-08-08T00:00:37;12.80;89.00
14733;DHT22;7457;50.960;6.830;2023-08-08T00:03:03;12.80;89.00
14733;DHT22;7457;50.960;6.830;2023-08-08T00:05:29;12.70;89.00
14733;DHT22;7457;50.960;6.830;2023-08-08T00:07:55;12.70;89.30
14733;DHT22;7457;50.960;6.830;2023-08-08T00:10:20;12.70;89.30
14733;DHT22;7457;50.960;6.830;2023-08-08T00:12:46;12.60;89.40
14733;DHT22;7457;50.960;6.830;2023-08-08T00:15:12;12.60;89.50
14733;DHT22;7457;50.960;6.830;2023-08-08T00:17:37;12.60;89.60
14733;DHT22;7457;50.960;6.830;2023-08-08T00:20:03;12.60;89.80
14733;DHT22;7457;50.960;6.830;2023-08-08T00:22:29;12.60;89.70
14733;DHT22;7457;50.960;6.830;2023-08-08T00:24:55;12.50;89.80
14733;DHT22;7457;50.960;6.830;2023-08-08T00:27:20;12.60;89.80
14733;DHT22;7457;50.960;6.830;2023-08-08T00:29:46;12.50;90.00
14733;DHT22;7457;50.960;6.830;2023-08-08T00:32:12;12.50;90.00
14733;DHT22;7457;50.960;6.830;2023-08-08T00:34:38;12.50;90.00
14733;DHT22;7457;50.960;6.830;2023-08-08T00:37:03;12.50;90.10
14733;DHT22;7457;50.960;6.830;2023-08-08T00:39:29;12.50;90.10
14733;DHT22;7457;50.960;6.830;2023-08-08T00:41:54;12.50;90.30
14733;DHT22;7457;50.960;6.830;2023-08-08T00:44:20;12.50;90.20
14733;DHT22;7457;50.960;6.830;2023-08-08T00:46:46;12.40;90.30
14733;DHT22;7457;50.960;6.830;2023-08-08T00:49:12;12.40;90.40
14733;DHT22;7457;50.960;6.830;2023-08-08T00:51:38;12.40;90.30
14733;DHT22;7457;50.960;6.830;2023-08-08T00:54:04;12.30;90.30
14733;DHT22;7457;50.960;6.830;2023-08-08T00:56:30;12.30;90.30
14733;DHT22;7457;50.960;6.830;2023-08-08T00:58:56;12.30;90.40
14733;DHT22;7457;50.960;6.830;2023-08-08T01:01:21;12.20;90.50
14733;DHT22;7457;50.960;6.830;2023-08-08T01:03:48;12.20;90.60
14733;DHT22;7457;50.960;6.830;2023-08-08T01:06:37;12.20;90.60
14733;DHT22;7457;50.960;6.830;2023-08-08T01:09:11;12.10;90.70
14733;DHT22;7457;50.960;6.830;2023-08-08T01:11:39;12.10;90.70
14733;DHT22;7457;50.960;6.830;2023-08-08T01:14:06;12.10;90.80
14733;DHT22;7457;50.960;6.830;2023-08-08T01:16:33;12.00;90.80
14733;DHT22;7457;50.960;6.830;2023-08-08T01:18:59;12.00;90.90
14733;DHT22;7457;50.960;6.830;2023-08-08T01:21:27;12.00;90.90
14733;DHT22;7457;50.960;6.830;2023-08-08T01:26:38;12.00;91.00
14733;DHT22;7457;50.960;6.830;2023-08-08T01:29:06;12.00;91.00
14733;DHT22;7457;50.960;6.830;2023-08-08T01:31:31;12.00;91.00
14733;DHT22;7457;50.960;6.830;2023-08-08T01:33:57;12.00;91.10
14733;DHT22;7457;50.960;6.830;2023-08-08T01:36:27;12.00;91.20
14733;DHT22;7457;50.960;6.830;2023-08-08T01:38:59;12.00;91.30
14733;DHT22;7457;50.960;6.830;2023-08-08T01:41:30;12.00;91.40
14733;DHT22;7457;50.960;6.830;2023-08-08T01:43:57;12.00;91.50
14733;DHT22;7457;50.960;6.830;2023-08-08T01:46:23;12.00;91.70
14733;DHT22;7457;50.960;6.830;2023-08-08T01:48:50;12.00;91.70
14733;DHT22;7457;50.960;6.830;2023-08-08T01:51:15;12.00;91.70
14733;DHT22;7457;50.960;6.830;2023-08-08T01:53:41;12.10;91.90
14733;DHT22;7457;50.960;6.830;2023-08-08T01:56:07;12.10;91.80
14733;DHT22;7457;50.960;6.830;2023-08-08T01:58:32;12.10;92.00
14733;DHT22;7457;50.960;6.830;2023-08-08T02:00:58;12.20;92.00
14733;DHT22;7457;50.960;6.830;2023-08-08T02:03:24;12.30;92.00
14733;DHT22;7457;50.960;6.830;2023-08-08T02:05:49;12.30;91.90
14733;DHT22;7457;50.960;6.830;2023-08-08T02:08:15;12.30;91.90
14733;DHT22;7457;50.960;6.830;2023-08-08T02:10:40;12.30;91.80
14733;DHT22;7457;50.960;6.830;2023-08-08T02:13:06;12.40;91.80
14733;DHT22;7457;50.960;6.830;2023-08-08T02:15:32;12.40;91.70
14733;DHT22;7457;50.960;6.830;2023-08-08T02:17:58;12.50;91.60
14733;DHT22;7457;50.960;6.830;2023-08-08T02:20:24;12.50;91.60
14733;DHT22;7457;50.960;6.830;2023-08-08T02:22:50;12.50;91.50
14733;DHT22;7457;50.960;6.830;2023-08-08T02:25:15;12.50;91.40
14733;DHT22;7457;50.960;6.830;2023-08-08T02:27:41;12.50;91.40
14733;DHT22;7457;50.960;6.830;2023-08-08T02:30:07;12.50;91.30
14733;DHT22;7457;50.960;6.830;2023-08-08T02:44:43;12.50;91.20
14733;DHT22;7457;50.960;6.830;2023-08-08T02:47:08;12.50;91.20
14733;DHT22;7457;50.960;6.830;2023-08-08T02:49:34;12.50;91.10
14733;DHT22;7457;50.960;6.830;2023-08-08T02:52:00;12.50;91.00
14733;DHT22;7457;50.960;6.830;2023-08-08T02:54:26;12.40;91.10
14733;DHT22;7457;50.960;6.830;2023-08-08T02:56:52;12.40;91.10
14733;DHT22;7457;50.960;6.830;2023-08-08T02:59:18;12.40;91.10
14733;DHT22;7457;50.960;6.830;2023-08-08T03:01:43;12.40;91.00
14733;DHT22;7457;50.960;6.830;2023-08-08T03:04:09;12.40;91.00
14733;DHT22;7457;50.960;6.830;2023-08-08T03:06:35;12.40;91.00
14733;DHT22;7457;50.960;6.830;2023-08-08T03:09:01;12.40;91.00
14733;DHT22;7457;50.960;6.830;2023-08-08T03:11:26;12.30;91.10
14733;DHT22;7457;50.960;6.830;2023-08-08T03:13:52;12.40;91.10
14733;DHT22;7457;50.960;6.830;2023-08-08T03:16:18;12.40;91.10
14733;DHT22;7457;50.960;6.830;2023-08-08T03:18:43;12.40;91.00
14733;DHT22;7457;50.960;6.830;2023-08-08T03:21:09;12.40;91.00
14733;DHT22;7457;50.960;6.830;2023-08-08T03:23:34;12.40;91.00
14733;DHT22;7457;50.960;6.830;2023-08-08T03:26:00;12.40;91.00
14733;DHT22;7457;50.960;6.830;2023-08-08T03:28:26;12.40;91.10
14733;DHT22;7457;50.960;6.830;2023-08-08T03:30:52;12.40;91.10
14733;DHT22;7457;50.960;6.830;2023-08-08T03:33:17;12.40;91.20
14733;DHT22;7457;50.960;6.830;2023-08-08T03:35:43;12.40;91.20
14733;DHT22;7457;50.960;6.830;2023-08-08T03:38:09;12.40;91.10
14733;DHT22;7457;50.960;6.830;2023-08-08T03:40:35;12.40;91.20
14733;DHT22;7457;50.960;6.830;2023-08-08T03:43:01;12.50;91.30
14733;DHT22;7457;50.960;6.830;2023-08-08T03:45:27;12.50;91.30
14733;DHT22;7457;50.960;6.830;2023-08-08T03:47:53;12.50;91.40
14733;DHT22;7457;50.960;6.830;2023-08-08T03:50:18;12.50;91.40
14733;DHT22;7457;50.960;6.830;2023-08-08T03:52:44;12.50;91.50
14733;DHT22;7457;50.960;6.830;2023-08-08T03:55:10;12.50;91.60
14733;DHT22;7457;50.960;6.830;2023-08-08T03:57:35;12.50;91.60
14733;DHT22;7457;50.960;6.830;2023-08-08T04:00:01;12.50;91.60
14733;DHT22;7457;50.960;6.830;2023-08-08T04:02:27;12.50;91.70
14733;DHT22;7457;50.960;6.830;2023-08-08T04:04:53;12.60;91.80
14733;DHT22;7457;50.960;6.830;2023-08-08T04:07:19;12.60;91.90
14733;DHT22;7457;50.960;6.830;2023-08-08T04:09:45;12.60;92.00
14733;DHT22;7457;50.960;6.830;2023-08-08T04:12:10;12.50;92.10
14733;DHT22;7457;50.960;6.830;2023-08-08T04:14:36;12.50;92.30
14733;DHT22;7457;50.960;6.830;2023-08-08T04:17:01;12.50;92.40
14733;DHT22;7457;50.960;6.830;2023-08-08T04:19:28;12.50;92.60
14733;DHT22;7457;50.960;6.830;2023-08-08T04:21:54;12.50;92.70
14733;DHT22;7457;50.960;6.830;2023-08-08T04:24:19;12.50;92.80
14733;DHT22;7457;50.960;6.830;2023-08-08T04:26:45;12.50;92.90
14733;DHT22;7457;50.960;6.830;2023-08-08T04:29:10;12.50;93.10
14733;DHT22;7457;50.960;6.830;2023-08-08T04:31:36;12.50;93.30
14733;DHT22;7457;50.960;6.830;2023-08-08T04:34:02;12.60;93.50
14733;DHT22;7457;50.960;6.830;2023-08-08T04:36:28;12.60;93.70
14733;DHT22;7457;50.960;6.830;2023-08-08T04:38:54;12.60;93.70
14733;DHT22;7457;50.960;6.830;2023-08-08T04:41:20;12.60;94.10
14733;DHT22;7457;50.960;6.830;2023-08-08T04:43:46;12.60;94.20
14733;DHT22;7457;50.960;6.830;2023-08-08T04:46:11;12.60;94.60
14733;DHT22;7457;50.960;6.830;2023-08-08T04:48:38;12.60;95.20
14733;DHT22;7457;50.960;6.830;2023-08-08T04:51:06;12.70;94.90
14733;DHT22;7457;50.960;6.830;2023-08-08T04:53:32;12.70;95.00
14733;DHT22;7457;50.960;6.830;2023-08-08T04:55:58;12.80;94.70
14733;DHT22;7457;50.960;6.830;2023-08-08T04:58:24;12.80;95.20
14733;DHT22;7457;50.960;6.830;2023-08-08T05:00:49;12.80;94.40
14733;DHT22;7457;50.960;6.830;2023-08-08T05:03:17;12.80;94.60
14733;DHT22;7457;50.960;6.830;2023-08-08T05:05:43;12.90;95.00
14733;DHT22;7457;50.960;6.830;2023-08-08T05:08:12;12.90;95.20
14733;DHT22;7457;50.960;6.830;2023-08-08T05:10:38;13.00;95.20
14733;DHT22;7457;50.960;6.830;2023-08-08T05:13:04;13.10;94.80
14733;DHT22;7457;50.960;6.830;2023-08-08T05:15:29;13.10;94.90
14733;DHT22;7457;50.960;6.830;2023-08-08T05:17:55;13.20;94.90
14733;DHT22;7457;50.960;6.830;2023-08-08T05:20:21;13.30;94.90
14733;DHT22;7457;50.960;6.830;2023-08-08T05:22:47;13.30;94.70
14733;DHT22;7457;50.960;6.830;2023-08-08T05:25:13;13.40;94.80
14733;DHT22;7457;50.960;6.830;2023-08-08T05:27:39;13.40;95.00
14733;DHT22;7457;50.960;6.830;2023-08-08T05:30:05;13.50;94.70
14733;DHT22;7457;50.960;6.830;2023-08-08T05:32:31;13.60;94.70
14733;DHT22;7457;50.960;6.830;2023-08-08T05:34:57;13.60;94.70
14733;DHT22;7457;50.960;6.830;2023-08-08T05:37:23;13.70;94.70
14733;DHT22;7457;50.960;6.830;2023-08-08T05:39:49;13.80;95.50
14733;DHT22;7457;50.960;6.830;2023-08-08T05:42:15;13.90;95.40
14733;DHT22;7457;50.960;6.830;2023-08-08T05:44:40;14.00;95.20
14733;DHT22;7457;50.960;6.830;2023-08-08T05:47:09;14.10;94.80
14733;DHT22;7457;50.960;6.830;2023-08-08T05:49:35;14.20;94.50
14733;DHT22;7457;50.960;6.830;2023-08-08T05:52:01;14.20;93.80
14733;DHT22;7457;50.960;6.830;2023-08-08T05:54:27;14.30;93.50
14733;DHT22;7457;50.960;6.830;2023-08-08T05:56:53;14.40;93.30
14733;DHT22;7457;50.960;6.830;2023-08-08T05:59:19;14.40;93.10
14733;DHT22;7457;50.960;6.830;2023-08-08T06:01:45;14.50;92.80
14733;DHT22;7457;50.960;6.830;2023-08-08T06:04:12;14.60;92.60
14733;DHT22;7457;50.960;6.830;2023-08-08T06:06:37;14.60;92.40
14733;DHT22;7457;50.960;6.830;2023-08-08T06:09:03;14.70;92.30
14733;DHT22;7457;50.960;6.830;2023-08-08T06:11:29;14.80;92.30
14733;DHT22;7457;50.960;6.830;2023-08-08T06:13:55;14.80;92.00
14733;DHT22;7457;50.960;6.830;2023-08-08T06:16:21;14.90;91.80
14733;DHT22;7457;50.960;6.830;2023-08-08T06:18:46;15.00;91.70
14733;DHT22;7457;50.960;6.830;2023-08-08T06:21:12;15.00;91.50
14733;DHT22;7457;50.960;6.830;2023-08-08T06:23:38;15.10;90.90
14733;DHT22;7457;50.960;6.830;2023-08-08T06:26:04;15.10;90.80
14733;DHT22;7457;50.960;6.830;2023-08-08T06:28:29;15.20;90.60
14733;DHT22;7457;50.960;6.830;2023-08-08T06:30:56;15.30;90.40
14733;DHT22;7457;50.960;6.830;2023-08-08T06:33:22;15.30;90.00
14733;DHT22;7457;50.960;6.830;2023-08-08T06:35:49;15.40;89.80
14733;DHT22;7457;50.960;6.830;2023-08-08T06:38:14;15.60;89.30
14733;DHT22;7457;50.960;6.830;2023-08-08T06:40:40;15.70;88.80
14733;DHT22;7457;50.960;6.830;2023-08-08T06:43:06;15.80;88.00
14733;DHT22;7457;50.960;6.830;2023-08-08T06:45:31;15.80;87.70
14733;DHT22;7457;50.960;6.830;2023-08-08T06:47:57;15.90;87.80
14733;DHT22;7457;50.960;6.830;2023-08-08T06:50:23;15.90;87.60
14733;DHT22;7457;50.960;6.830;2023-08-08T06:52:50;16.00;87.50
14733;DHT22;7457;50.960;6.830;2023-08-08T06:55:16;16.00;87.10
14733;DHT22;7457;50.960;6.830;2023-08-08T06:57:41;16.10;87.00
14733;DHT22;7457;50.960;6.830;2023-08-08T07:00:08;16.10;86.50
14733;DHT22;7457;50.960;6.830;2023-08-08T07:02:34;16.10;87.00
14733;DHT22;7457;50.960;6.830;2023-08-08T07:05:00;16.20;86.90
14733;DHT22;7457;50.960;6.830;2023-08-08T07:07:26;16.20;86.90
14733;DHT22;7457;50.960;6.830;2023-08-08T07:09:52;16.20;86.80
14733;DHT22;7457;50.960;6.830;2023-08-08T07:12:17;16.30;86.80
14733;DHT22;7457;50.960;6.830;2023-08-08T07:14:43;16.50;86.70
14733;DHT22;7457;50.960;6.830;2023-08-08T07:17:08;16.50;85.90
14733;DHT22;7457;50.960;6.830;2023-08-08T07:19:35;16.60;85.30
14733;DHT22;7457;50.960;6.830;2023-08-08T07:22:01;16.70;85.30
14733;DHT22;7457;50.960;6.830;2023-08-08T07:24:27;16.90;85.50
14733;DHT22;7457;50.960;6.830;2023-08-08T07:26:55;17.00;84.30
14733;DHT22;7457;50.960;6.830;2023-08-08T07:29:21;17.10;83.30
14733;DHT22;7457;50.960;6.830;2023-08-08T07:31:46;17.10;83.80
14733;DHT22;7457;50.960;6.830;2023-08-08T07:34:12;17.20;83.90
14733;DHT22;7457;50.960;6.830;2023-08-08T07:36:38;17.40;83.50
14733;DHT22;7457;50.960;6.830;2023-08-08T07:39:03;17.60;82.40
14733;DHT22;7457;50.960;6.830;2023-08-08T07:41:30;17.70;82.50
14733;DHT22;7457;50.960;6.830;2023-08-08T07:43:56;17.80;82.20
14733;DHT22;7457;50.960;6.830;2023-08-08T07:46:22;17.80;80.90
14733;DHT22;7457;50.960;6.830;2023-08-08T07:48:48;17.80;80.90
14733;DHT22;7457;50.960;6.830;2023-08-08T07:51:13;17.70;81.60
14733;DHT22;7457;50.960;6.830;2023-08-08T07:53:39;17.80;81.70
14733;DHT22;7457;50.960;6.830;2023-08-08T07:56:05;17.80;81.80
14733;DHT22;7457;50.960;6.830;2023-08-08T07:58:32;17.90;81.40
14733;DHT22;7457;50.960;6.830;2023-08-08T08:00:58;17.90;81.80
14733;DHT22;7457;50.960;6.830;2023-08-08T08:03:26;18.10;80.80
14733;DHT22;7457;50.960;6.830;2023-08-08T08:05:53;18.10;80.30
14733;DHT22;7457;50.960;6.830;2023-08-08T08:08:19;18.10;80.60
14733;DHT22;7457;50.960;6.830;2023-08-08T08:10:44;18.20;81.10
14733;DHT22;7457;50.960;6.830;2023-08-08T08:13:11;18.40;80.50
14733;DHT22;7457;50.960;6.830;2023-08-08T08:15:37;18.40;79.10
14733;DHT22;7457;50.960;6.830;2023-08-08T08:18:03;18.20;78.50
14733;DHT22;7457;50.960;6.830;2023-08-08T08:20:29;17.80;79.00
14733;DHT22;7457;50.960;6.830;2023-08-08T08:22:55;17.50;80.10
14733;DHT22;7457;50.960;6.830;2023-08-08T08:25:20;17.30;80.60
14733;DHT22;7457;50.960;6.830;2023-08-08T08:27:46;17.30;81.40
14733;DHT22;7457;50.960;6.830;2023-08-08T08:30:12;17.20;81.30
14733;DHT22;7457;50.960;6.830;2023-08-08T08:32:40;17.20;81.00
14733;DHT22;7457;50.960;6.830;2023-08-08T08:35:06;17.10;81.20
14733;DHT22;7457;50.960;6.830;2023-08-08T08:37:33;17.10;82.00
14733;DHT22;7457;50.960;6.830;2023-08-08T08:39:59;17.10;82.00
14733;DHT22;7457;50.960;6.830;2023-08-08T08:42:26;17.10;81.60
14733;DHT22;7457;50.960;6.830;2023-08-08T08:44:57;17.10;81.40
14733;DHT22;7457;50.960;6.830;2023-08-08T08:47:24;17.10;81.80
14733;DHT22;7457;50.960;6.830;2023-08-08T08:49:53;17.00;81.70
14733;DHT22;7457;50.960;6.830;2023-08-08T08:52:20;17.00;81.90
14733;DHT22;7457;50.960;6.830;2023-08-08T08:54:46;17.00;81.90
14733;DHT22;7457;50.960;6.830;2023-08-08T08:57:12;17.10;82.60
14733;DHT22;7457;50.960;6.830;2023-08-08T08:59:38;17.30;82.80
14733;DHT22;7457;50.960;6.830;2023-08-08T09:02:03;17.50;81.90
14733;DHT22;7457;50.960;6.830;2023-08-08T09:04:29;17.70;81.10
14733;DHT22;7457;50.960;6.830;2023-08-08T09:06:56;17.70;80.50
14733;DHT22;7457;50.960;6.830;2023-08-08T09:09:21;17.80;80.30
14733;DHT22;7457;50.960;6.830;2023-08-08T09:11:52;17.80;80.20
14733;DHT22;7457;50.960;6.830;2023-08-08T09:14:23;18.00;79.70
14733;DHT22;7457;50.960;6.830;2023-08-08T09:16:50;18.10;79.40
14733;DHT22;7457;50.960;6.830;2023-08-08T09:19:17;18.20;78.60
14733;DHT22;7457;50.960;6.830;2023-08-08T09:21:47;18.10;78.00
14733;DHT22;7457;50.960;6.830;2023-08-08T09:24:12;18.00;78.10
14733;DHT22;7457;50.960;6.830;2023-08-08T09:26:39;17.90;77.80
14733;DHT22;7457;50.960;6.830;2023-08-08T09:29:05;17.80;78.00
14733;DHT22;7457;50.960;6.830;2023-08-08T09:31:31;17.90;78.30
14733;DHT22;7457;50.960;6.830;2023-08-08T09:34:00;17.90;78.70
14733;DHT22;7457;50.960;6.830;2023-08-08T09:36:26;18.00;78.50
14733;DHT22;7457;50.960;6.830;2023-08-08T09:38:55;18.10;78.30
14733;DHT22;7457;50.960;6.830;2023-08-08T09:41:24;18.10;77.80
14733;DHT22;7457;50.960;6.830;2023-08-08T09:43:51;18.10;78.30
14733;DHT22;7457;50.960;6.830;2023-08-08T09:46:22;18.30;77.90
14733;DHT22;7457;50.960;6.830;2023-08-08T09:48:48;18.60;77.50
14733;DHT22;7457;50.960;6.830;2023-08-08T09:51:14;18.90;76.60
14733;DHT22;7457;50.960;6.830;2023-08-08T09:53:41;19.10;75.20
14733;DHT22;7457;50.960;6.830;2023-08-08T09:56:07;19.20;73.60
14733;DHT22;7457;50.960;6.830;2023-08-08T09:58:33;19.10;73.20
14733;DHT22;7457;50.960;6.830;2023-08-08T10:00:59;18.90;73.10
14733;DHT22;7457;50.960;6.830;2023-08-08T10:03:25;18.70;73.00
14733;DHT22;7457;50.960;6.830;2023-08-08T10:05:54;18.50;74.10
14733;DHT22;7457;50.960;6.830;2023-08-08T10:08:21;18.50;75.40
14733;DHT22;7457;50.960;6.830;2023-08-08T10:10:48;18.60;75.80
14733;DHT22;7457;50.960;6.830;2023-08-08T10:13:26;18.70;75.10
14733;DHT22;7457;50.960;6.830;2023-08-08T10:15:52;19.00;74.30
14733;DHT22;7457;50.960;6.830;2023-08-08T10:18:21;19.20;73.60
14733;DHT22;7457;50.960;6.830;2023-08-08T10:20:48;19.40;72.90
14733;DHT22;7457;50.960;6.830;2023-08-08T10:23:15;19.40;72.60
14733;DHT22;7457;50.960;6.830;2023-08-08T10:25:45;19.40;72.80
14733;DHT22;7457;50.960;6.830;2023-08-08T10:28:13;19.60;73.20
14733;DHT22;7457;50.960;6.830;2023-08-08T10:30:56;19.90;72.70
14733;DHT22;7457;50.960;6.830;2023-08-08T10:33:22;20.30;71.20
14733;DHT22;7457;50.960;6.830;2023-08-08T10:38:17;20.50;69.30
14733;DHT22;7457;50.960;6.830;2023-08-08T10:40:43;20.40;69.40
14733;DHT22;7457;50.960;6.830;2023-08-08T10:43:12;20.30;68.40
14733;DHT22;7457;50.960;6.830;2023-08-08T10:45:41;20.00;68.50
14733;DHT22;7457;50.960;6.830;2023-08-08T10:48:10;19.80;69.20
14733;DHT22;7457;50.960;6.830;2023-08-08T10:50:42;19.70;69.60
14733;DHT22;7457;50.960;6.830;2023-08-08T10:53:09;19.50;69.60
14733;DHT22;7457;50.960;6.830;2023-08-08T10:55:38;19.20;69.30
14733;DHT22;7457;50.960;6.830;2023-08-08T10:58:07;19.00;70.00
14733;DHT22;7457;50.960;6.830;2023-08-08T11:00:35;18.80;70.60
14733;DHT22;7457;50.960;6.830;2023-08-08T11:03:02;18.70;70.90
14733;DHT22;7457;50.960;6.830;2023-08-08T11:05:35;18.70;71.10
14733;DHT22;7457;50.960;6.830;2023-08-08T11:08:03;18.70;71.60
14733;DHT22;7457;50.960;6.830;2023-08-08T11:10:29;18.70;71.70
14733;DHT22;7457;50.960;6.830;2023-08-08T11:13:03;18.60;72.00
14733;DHT22;7457;50.960;6.830;2023-08-08T11:15:31;18.60;72.60
14733;DHT22;7457;50.960;6.830;2023-08-08T11:17:57;18.60;72.90
14733;DHT22;7457;50.960;6.830;2023-08-08T11:20:23;18.70;74.30
14733;DHT22;7457;50.960;6.830;2023-08-08T11:22:54;18.80;73.20
14733;DHT22;7457;50.960;6.830;2023-08-08T11:25:27;18.90;72.50
14733;DHT22;7457;50.960;6.830;2023-08-08T11:27:54;19.00;72.50
14733;DHT22;7457;50.960;6.830;2023-08-08T11:30:21;19.10;72.50
14733;DHT22;7457;50.960;6.830;2023-08-08T11:32:49;19.20;71.90
14733;DHT22;7457;50.960;6.830;2023-08-08T11:35:20;19.20;71.10
14733;DHT22;7457;50.960;6.830;2023-08-08T11:37:47;19.20;70.00
14733;DHT22;7457;50.960;6.830;2023-08-08T11:40:14;19.20;69.50
14733;DHT22;7457;50.960;6.830;2023-08-08T11:42:40;19.10;69.50
14733;DHT22;7457;50.960;6.830;2023-08-08T11:45:09;19.10;69.10
14733;DHT22;7457;50.960;6.830;2023-08-08T11:47:35;19.00;69.60
14733;DHT22;7457;50.960;6.830;2023-08-08T11:50:06;18.90;69.00
14733;DHT22;7457;50.960;6.830;2023-08-08T11:52:32;18.80;69.20
14733;DHT22;7457;50.960;6.830;2023-08-08T11:55:01;18.70;69.50
14733;DHT22;7457;50.960;6.830;2023-08-08T11:57:27;18.60;70.00
14733;DHT22;7457;50.960;6.830;2023-08-08T11:59:57;18.50;70.10
14733;DHT22;7457;50.960;6.830;2023-08-08T12:02:23;18.50;70.30
14733;DHT22;7457;50.960;6.830;2023-08-08T12:04:49;18.40;70.40
14733;DHT22;7457;50.960;6.830;2023-08-08T12:07:14;18.40;70.50
14733;DHT22;7457;50.960;6.830;2023-08-08T12:09:40;18.60;70.70
14733;DHT22;7457;50.960;6.830;2023-08-08T12:12:06;18.70;70.80
14733;DHT22;7457;50.960;6.830;2023-08-08T12:14:38;19.00;69.90
14733;DHT22;7457;50.960;6.830;2023-08-08T12:17:04;19.10;69.60
14733;DHT22;7457;50.960;6.830;2023-08-08T12:19:30;19.10;69.20
14733;DHT22;7457;50.960;6.830;2023-08-08T12:21:56;19.10;68.80
14733;DHT22;7457;50.960;6.830;2023-08-08T12:24:21;19.10;68.60
14733;DHT22;7457;50.960;6.830;2023-08-08T12:26:47;19.00;68.80
14733;DHT22;7457;50.960;6.830;2023-08-08T12:29:13;19.10;68.60
14733;DHT22;7457;50.960;6.830;2023-08-08T12:31:39;19.10;68.20
14733;DHT22;7457;50.960;6.830;2023-08-08T12:34:05;19.00;67.80
14733;DHT22;7457;50.960;6.830;2023-08-08T12:36:31;19.00;67.80
14733;DHT22;7457;50.960;6.830;2023-08-08T12:38:57;18.90;67.80
14733;DHT22;7457;50.960;6.830;2023-08-08T12:41:23;18.80;67.30
14733;DHT22;7457;50.960;6.830;2023-08-08T12:43:52;18.60;67.10
14733;DHT22;7457;50.960;6.830;2023-08-08T12:46:18;18.50;67.20
14733;DHT22;7457;50.960;6.830;2023-08-08T12:48:43;18.30;67.80
14733;DHT22;7457;50.960;6.830;2023-08-08T12:51:10;18.20;68.20
14733;DHT22;7457;50.960;6.830;2023-08-08T12:53:35;18.10;69.20
14733;DHT22;7457;50.960;6.830;2023-08-08T12:56:01;18.00;70.70
14733;DHT22;7457;50.960;6.830;2023-08-08T12:58:27;17.80;71.70
14733;DHT22;7457;50.960;6.830;2023-08-08T13:00:53;17.70;72.90
14733;DHT22;7457;50.960;6.830;2023-08-08T13:03:19;17.50;73.50
14733;DHT22;7457;50.960;6.830;2023-08-08T13:05:45;17.40;74.70
14733;DHT22;7457;50.960;6.830;2023-08-08T13:08:12;17.30;75.60
14733;DHT22;7457;50.960;6.830;2023-08-08T13:10:39;17.30;75.80
14733;DHT22;7457;50.960;6.830;2023-08-08T13:13:05;17.30;76.50
14733;DHT22;7457;50.960;6.830;2023-08-08T13:15:31;17.30;76.70
14733;DHT22;7457;50.960;6.830;2023-08-08T13:17:57;17.30;77.60
14733;DHT22;7457;50.960;6.830;2023-08-08T13:20:24;17.60;79.50
14733;DHT22;7457;50.960;6.830;2023-08-08T13:22:50;18.00;77.40
14733;DHT22;7457;50.960;6.830;2023-08-08T13:25:16;18.20;76.30
14733;DHT22;7457;50.960;6.830;2023-08-08T13:27:44;18.40;74.70
14733;DHT22;7457;50.960;6.830;2023-08-08T13:30:10;18.50;73.00
14733;DHT22;7457;50.960;6.830;2023-08-08T13:32:36;18.60;72.60
14733;DHT22;7457;50.960;6.830;2023-08-08T13:35:02;18.60;72.20
14733;DHT22;7457;50.960;6.830;2023-08-08T13:37:27;18.70;71.60
14733;DHT22;7457;50.960;6.830;2023-08-08T13:39:53;18.70;70.30
14733;DHT22;7457;50.960;6.830;2023-08-08T13:42:19;18.70;69.80
14733;DHT22;7457;50.960;6.830;2023-08-08T13:44:45;18.70;69.30
14733;DHT22;7457;50.960;6.830;2023-08-08T13:47:10;18.50;69.70
14733;DHT22;7457;50.960;6.830;2023-08-08T13:49:36;18.40;70.50
14733;DHT22;7457;50.960;6.830;2023-08-08T13:52:02;18.30;70.90
14733;DHT22;7457;50.960;6.830;2023-08-08T13:54:30;18.30;71.20
14733;DHT22;7457;50.960;6.830;2023-08-08T13:56:56;18.20;72.00
14733;DHT22;7457;50.960;6.830;2023-08-08T13:59:22;18.10;72.90
14733;DHT22;7457;50.960;6.830;2023-08-08T14:01:47;18.10;73.50
14733;DHT22;7457;50.960;6.830;2023-08-08T14:04:13;18.10;74.30
14733;DHT22;7457;50.960;6.830;2023-08-08T14:06:38;18.20;74.10
14733;DHT22;7457;50.960;6.830;2023-08-08T14:09:05;18.30;74.20
14733;DHT22;7457;50.960;6.830;2023-08-08T14:11:31;18.50;74.10
14733;DHT22;7457;50.960;6.830;2023-08-08T14:13:56;18.70;73.80
14733;DHT22;7457;50.960;6.830;2023-08-08T14:16:22;18.80;73.70
14733;DHT22;7457;50.960;6.830;2023-08-08T14:18:48;19.10;73.00
14733;DHT22;7457;50.960;6.830;2023-08-08T14:21:15;19.20;72.10
14733;DHT22;7457;50.960;6.830;2023-08-08T14:23:40;19.30;71.40
14733;DHT22;7457;50.960;6.830;2023-08-08T14:26:06;19.30;70.90
14733;DHT22;7457;50.960;6.830;2023-08-08T14:28:32;19.30;70.60
14733;DHT22;7457;50.960;6.830;2023-08-08T14:30:57;19.40;72.00
14733;DHT22;7457;50.960;6.830;2023-08-08T14:33:23;19.60;71.50
14733;DHT22;7457;50.960;6.830;2023-08-08T14:35:49;19.80;68.60
14733;DHT22;7457;50.960;6.830;2023-08-08T14:38:15;19.80;68.60
14733;DHT22;7457;50.960;6.830;2023-08-08T14:40:41;19.80;68.00
14733;DHT22;7457;50.960;6.830;2023-08-08T14:43:07;19.80;68.50
14733;DHT22;7457;50.960;6.830;2023-08-08T14:45:37;19.80;69.30
14733;DHT22;7457;50.960;6.830;2023-08-08T14:48:04;19.90;68.90
14733;DHT22;7457;50.960;6.830;2023-08-08T14:50:31;20.00;67.90
14733;DHT22;7457;50.960;6.830;2023-08-08T14:52:56;20.00;68.10
14733;DHT22;7457;50.960;6.830;2023-08-08T14:55:22;20.10;67.50
14733;DHT22;7457;50.960;6.830;2023-08-08T14:57:48;20.10;67.70
14733;DHT22;7457;50.960;6.830;2023-08-08T15:00:14;20.10;68.30
14733;DHT22;7457;50.960;6.830;2023-08-08T15:02:39;20.10;67.00
14733;DHT22;7457;50.960;6.830;2023-08-08T15:05:05;20.10;67.40
14733;DHT22;7457;50.960;6.830;2023-08-08T15:07:31;20.10;67.80
14733;DHT22;7457;50.960;6.830;2023-08-08T15:09:57;20.10;68.90
14733;DHT22;7457;50.960;6.830;2023-08-08T15:12:23;20.20;67.70
14733;DHT22;7457;50.960;6.830;2023-08-08T15:14:48;20.30;67.10
14733;DHT22;7457;50.960;6.830;2023-08-08T15:17:16;20.20;67.30
14733;DHT22;7457;50.960;6.830;2023-08-08T15:19:42;20.10;67.30
14733;DHT22;7457;50.960;6.830;2023-08-08T15:22:07;20.10;67.50
14733;DHT22;7457;50.960;6.830;2023-08-08T15:24:33;20.20;67.40
14733;DHT22;7457;50.960;6.830;2023-08-08T15:27:01;20.20;67.40
14733;DHT22;7457;50.960;6.830;2023-08-08T15:29:27;20.20;66.30
14733;DHT22;7457;50.960;6.830;2023-08-08T15:31:53;20.10;66.00
14733;DHT22;7457;50.960;6.830;2023-08-08T15:34:18;19.90;66.20
14733;DHT22;7457;50.960;6.830;2023-08-08T15:36:44;19.80;66.60
14733;DHT22;7457;50.960;6.830;2023-08-08T15:39:10;19.60;66.90
14733;DHT22;7457;50.960;6.830;2023-08-08T15:41:36;19.50;67.70
14733;DHT22;7457;50.960;6.830;2023-08-08T15:44:02;19.50;68.60
14733;DHT22;7457;50.960;6.830;2023-08-08T15:46:28;19.60;68.20
14733;DHT22;7457;50.960;6.830;2023-08-08T15:48:54;19.60;68.00
14733;DHT22;7457;50.960;6.830;2023-08-08T15:51:20;19.60;67.50
14733;DHT22;7457;50.960;6.830;2023-08-08T15:53:45;19.50;67.00
14733;DHT22;7457;50.960;6.830;2023-08-08T15:56:11;19.50;67.60